createdAt,value
2022-11-23T00:01:40.515Z,59.00
2022-11-23T00:04:14.311Z,61.05
2022-11-23T00:06:43.653Z,58.22
2022-11-23T00:09:13.515Z,58.05
2022-11-23T00:11:42.383Z,56.70
2022-11-23T00:14:10.654Z,66.65
2022-11-23T00:16:39.262Z,61.85
2022-11-23T00:19:07.509Z,58.97
2022-11-23T00:21:35.926Z,66.23
2022-11-23T00:24:05.641Z,65.75
2022-11-23T00:26:35.740Z,60.08
2022-11-23T00:29:03.927Z,61.60
2022-11-23T00:31:32.865Z,59.75
2022-11-23T00:34:01.082Z,54.38
2022-11-23T00:36:30.037Z,54.70
2022-11-23T00:38:58.831Z,53.20
2022-11-23T00:41:29.083Z,48.13
2022-11-23T00:43:59.134Z,53.08
2022-11-23T00:46:29.564Z,48.67
2022-11-23T00:48:59.212Z,54.90
2022-11-23T00:51:29.313Z,58.05
2022-11-23T00:53:58.152Z,50.88
2022-11-23T00:56:27.801Z,54.65
2022-11-23T00:59:00.187Z,59.63
2022-11-23T01:01:33.892Z,53.45
2022-11-23T01:04:03.832Z,56.03
2022-11-23T01:06:38.030Z,57.97
2022-11-23T01:09:09.458Z,53.30
2022-11-23T01:11:37.966Z,54.45
2022-11-23T01:14:08.241Z,57.25
2022-11-23T01:16:39.029Z,56.90
2022-11-23T01:19:09.048Z,57.05
2022-11-23T01:21:37.639Z,53.55
2022-11-23T01:24:06.781Z,60.63
2022-11-23T01:26:35.146Z,52.78
2022-11-23T01:29:03.427Z,65.25
2022-11-23T01:31:33.325Z,63.23
2022-11-23T01:34:03.408Z,55.55
2022-11-23T01:36:34.771Z,61.17
2022-11-23T01:39:03.593Z,59.58
2022-11-23T01:41:34.201Z,54.10
2022-11-23T01:44:03.045Z,56.67
2022-11-23T01:46:33.359Z,51.05
2022-11-23T01:49:05.109Z,55.65
2022-11-23T01:51:36.789Z,60.53
2022-11-23T01:54:09.906Z,62.40
2022-11-23T01:56:44.645Z,52.60
2022-11-23T01:59:16.518Z,58.10
2022-11-23T02:01:46.562Z,52.10
2022-11-23T02:04:18.885Z,58.90
2022-11-23T02:06:48.794Z,56.67
2022-11-23T02:09:18.719Z,49.50
2022-11-23T02:11:47.008Z,54.47
2022-11-23T02:14:19.121Z,58.42
2022-11-23T02:16:53.245Z,49.53
2022-11-23T02:19:35.094Z,51.95
2022-11-23T02:22:03.994Z,56.03
2022-11-23T02:24:37.498Z,52.50
2022-11-23T02:27:08.173Z,55.63
2022-11-23T02:29:36.435Z,57.28
2022-11-23T02:32:05.298Z,56.53
2022-11-23T02:34:33.492Z,56.58
2022-11-23T02:37:02.534Z,56.13
2022-11-23T02:39:34.051Z,56.47
2022-11-23T02:42:02.775Z,48.80
2022-11-23T02:44:41.266Z,52.50
2022-11-23T02:47:11.352Z,45.78
2022-11-23T02:54:37.323Z,52.20
2022-11-23T02:57:06.486Z,45.65
2022-11-23T02:59:35.965Z,55.88
2022-11-23T03:02:05.853Z,56.20
2022-11-23T03:04:34.245Z,54.33
2022-11-23T03:07:02.579Z,51.28
2022-11-23T03:09:31.306Z,51.10
2022-11-23T03:11:59.994Z,54.28
2022-11-23T03:14:28.368Z,54.03
2022-11-23T03:16:58.186Z,51.60
2022-11-23T03:19:26.364Z,54.30
2022-11-23T03:21:54.804Z,51.20
2022-11-23T03:24:23.242Z,51.40
2022-11-23T03:26:51.645Z,50.70
2022-11-23T03:29:19.729Z,53.25
2022-11-23T03:31:48.352Z,54.03
2022-11-23T03:34:17.761Z,48.25
2022-11-23T03:36:46.317Z,51.55
2022-11-23T03:39:14.532Z,51.88
2022-11-23T03:41:42.905Z,47.88
2022-11-23T03:44:10.978Z,54.63
2022-11-23T03:46:39.502Z,45.05
2022-11-23T03:49:07.649Z,44.63
2022-11-23T03:51:38.175Z,48.35
2022-11-23T03:54:06.763Z,52.90
2022-11-23T03:56:35.151Z,51.15
2022-11-23T03:59:03.271Z,45.88
2022-11-23T04:01:31.812Z,50.50
2022-11-23T04:04:00.401Z,58.03
2022-11-23T04:06:28.793Z,46.97
2022-11-23T04:09:02.054Z,43.92
2022-11-23T04:11:31.149Z,46.75
2022-11-23T04:13:59.367Z,45.58
2022-11-23T04:16:27.743Z,51.63
2022-11-23T04:18:56.130Z,48.60
2022-11-23T04:21:24.654Z,48.55
2022-11-23T04:23:52.761Z,47.55
2022-11-23T04:26:22.536Z,59.25
2022-11-23T04:31:18.959Z,48.85
2022-11-23T04:33:47.088Z,49.15
2022-11-23T04:36:15.549Z,45.28
2022-11-23T04:38:43.655Z,47.10
2022-11-23T04:41:12.378Z,55.47
2022-11-23T04:43:41.923Z,53.33
2022-11-23T04:46:10.923Z,48.28
2022-11-23T04:48:39.049Z,47.70
2022-11-23T04:51:07.691Z,51.80
2022-11-23T04:53:36.321Z,53.55
2022-11-23T04:56:04.952Z,54.03
2022-11-23T04:58:34.485Z,53.47
2022-11-23T05:01:05.616Z,63.95
2022-11-23T05:03:35.061Z,58.80
2022-11-23T05:06:04.229Z,54.83
2022-11-23T05:08:33.810Z,62.35
2022-11-23T05:11:04.230Z,57.53
2022-11-23T05:13:32.362Z,61.35
2022-11-23T05:16:00.904Z,59.10
2022-11-23T05:18:30.467Z,56.15
2022-11-23T05:21:01.578Z,59.25
2022-11-23T05:23:29.689Z,56.78
2022-11-23T05:25:58.038Z,63.17
2022-11-23T05:28:42.143Z,61.20
2022-11-23T05:31:11.136Z,66.95
2022-11-23T05:33:40.762Z,65.33
2022-11-23T05:36:09.680Z,61.80
2022-11-23T05:38:37.767Z,64.85
2022-11-23T05:41:06.468Z,64.20
2022-11-23T05:43:34.723Z,59.97
2022-11-23T05:46:03.771Z,67.67
2022-11-23T05:48:32.143Z,70.95
2022-11-23T05:51:05.053Z,75.10
2022-11-23T05:53:34.010Z,74.00
2022-11-23T05:56:02.877Z,79.20
2022-11-23T05:58:31.282Z,70.50
2022-11-23T06:01:03.102Z,74.75
2022-11-23T06:03:31.618Z,60.13
2022-11-23T06:06:01.448Z,67.10
2022-11-23T06:11:01.950Z,72.32
2022-11-23T06:13:30.196Z,70.50
2022-11-23T06:15:58.833Z,69.20
2022-11-23T06:18:26.908Z,71.55
2022-11-23T06:20:55.516Z,71.93
2022-11-23T06:23:25.129Z,66.10
2022-11-23T06:25:53.529Z,74.75
2022-11-23T06:28:21.784Z,65.97
2022-11-23T06:30:51.349Z,68.75
2022-11-23T06:33:19.501Z,70.50
2022-11-23T06:35:56.764Z,60.60
2022-11-23T06:38:26.653Z,72.25
2022-11-23T06:40:58.299Z,73.47
2022-11-23T06:43:26.412Z,69.35
2022-11-23T06:45:54.919Z,65.60
2022-11-23T06:48:23.551Z,79.88
2022-11-23T06:50:52.300Z,65.50
2022-11-23T06:53:20.360Z,73.40
2022-11-23T06:55:50.179Z,73.68
2022-11-23T06:58:18.585Z,72.07
2022-11-23T07:00:46.951Z,75.47
2022-11-23T07:03:21.272Z,71.60
2022-11-23T07:05:50.024Z,71.82
2022-11-23T07:08:18.162Z,79.03
2022-11-23T07:13:17.754Z,69.43
2022-11-23T07:15:46.213Z,73.15
2022-11-23T07:18:15.822Z,76.55
2022-11-23T07:20:44.188Z,84.00
2022-11-23T07:23:13.336Z,69.18
2022-11-23T07:25:41.765Z,85.28
2022-11-23T07:28:11.916Z,76.55
2022-11-23T07:30:41.949Z,75.07
2022-11-23T07:33:12.442Z,74.75
2022-11-23T07:35:42.424Z,76.45
2022-11-23T07:38:10.707Z,78.68
2022-11-23T07:40:40.250Z,72.20
2022-11-23T07:43:09.120Z,72.68
2022-11-23T07:45:38.627Z,72.97
2022-11-23T07:48:10.236Z,72.63
2022-11-23T07:50:39.803Z,73.05
2022-11-23T07:53:09.125Z,76.65
2022-11-23T07:55:37.814Z,73.40
2022-11-23T07:58:06.574Z,79.82
2022-11-23T08:00:34.930Z,67.90
2022-11-23T08:05:53.429Z,63.58
2022-11-23T08:08:21.597Z,67.32
2022-11-23T08:10:53.311Z,67.27
2022-11-23T08:13:23.527Z,67.55
2022-11-23T08:18:24.703Z,68.70
2022-11-23T08:20:54.539Z,77.03
2022-11-23T08:23:22.876Z,69.13
2022-11-23T08:25:51.435Z,71.03
2022-11-23T08:28:19.637Z,74.47
2022-11-23T08:30:48.150Z,75.68
2022-11-23T08:33:17.196Z,67.38
2022-11-23T08:35:45.610Z,64.88
2022-11-23T08:38:15.421Z,69.50
2022-11-23T08:40:44.133Z,61.15
2022-11-23T08:43:12.407Z,62.60
2022-11-23T08:45:41.700Z,67.03
2022-11-23T08:48:11.003Z,65.65
2022-11-23T08:53:07.814Z,64.93
2022-11-23T08:55:38.985Z,67.87
2022-11-23T08:58:13.243Z,56.75
2022-11-23T09:00:42.007Z,64.53
2022-11-23T09:03:10.160Z,73.53
2022-11-23T09:05:39.780Z,72.73
2022-11-23T09:08:09.106Z,67.82
2022-11-23T09:10:39.301Z,69.85
2022-11-23T09:13:07.687Z,75.32
2022-11-23T09:15:36.718Z,71.72
2022-11-23T09:18:05.180Z,69.75
2022-11-23T09:20:33.812Z,62.13
2022-11-23T09:23:01.877Z,67.43
2022-11-23T09:25:30.287Z,67.18
2022-11-23T09:28:00.944Z,67.32
2022-11-23T09:30:29.440Z,63.25
2022-11-23T09:32:58.334Z,68.25
2022-11-23T09:35:26.620Z,69.78
2022-11-23T09:37:58.765Z,65.30
2022-11-23T09:40:31.953Z,66.20
2022-11-23T09:43:29.257Z,62.90
2022-11-23T09:46:02.414Z,57.17
2022-11-23T09:48:45.986Z,59.17
2022-11-23T09:51:17.493Z,63.42
2022-11-23T09:53:49.484Z,50.90
2022-11-23T09:56:21.364Z,60.63
2022-11-23T09:58:55.278Z,66.38
2022-11-23T10:01:23.727Z,64.88
2022-11-23T10:03:52.327Z,64.30
2022-11-23T10:06:22.677Z,63.33
2022-11-23T10:09:13.648Z,63.40
2022-11-23T10:12:13.967Z,59.80
2022-11-23T10:15:04.324Z,65.00
2022-11-23T10:17:54.566Z,64.95
2022-11-23T10:20:58.234Z,56.88
2022-11-23T10:23:48.417Z,59.25
2022-11-23T10:26:19.003Z,60.65
2022-11-23T10:28:48.854Z,59.00
2022-11-23T10:31:20.625Z,64.32
2022-11-23T10:33:58.298Z,67.05
2022-11-23T10:36:26.793Z,62.63
2022-11-23T10:39:03.091Z,67.03
2022-11-23T10:41:32.035Z,67.47
2022-11-23T10:44:08.267Z,68.95
2022-11-23T10:46:41.759Z,62.05
2022-11-23T10:49:16.791Z,62.70
2022-11-23T10:51:54.136Z,59.80
2022-11-23T10:54:29.085Z,63.22
2022-11-23T10:56:59.031Z,66.00
2022-11-23T10:59:36.835Z,77.15
2022-11-23T11:02:18.238Z,59.70
2022-11-23T11:04:47.719Z,62.05
2022-11-23T11:07:28.590Z,71.43
2022-11-23T11:09:59.188Z,67.07
2022-11-23T11:12:29.367Z,76.88
2022-11-23T11:15:12.059Z,68.03
2022-11-23T11:17:42.439Z,61.00
2022-11-23T11:20:33.499Z,77.30
2022-11-23T11:23:05.543Z,63.35
2022-11-23T11:25:37.232Z,67.03
2022-11-23T11:28:20.191Z,62.80
2022-11-23T11:30:57.533Z,69.47
2022-11-23T11:33:36.449Z,64.22
2022-11-23T11:36:07.577Z,66.07
2022-11-23T11:38:38.371Z,72.00
2022-11-23T11:41:10.249Z,70.95
2022-11-23T11:43:43.015Z,70.68
2022-11-23T11:46:31.667Z,66.55
2022-11-23T11:49:08.651Z,69.97
2022-11-23T11:51:41.271Z,70.10
2022-11-23T11:54:19.719Z,69.57
2022-11-23T11:56:51.197Z,56.72
2022-11-23T11:59:26.317Z,60.53
2022-11-23T12:02:00.335Z,71.85
2022-11-23T12:04:38.815Z,61.33
2022-11-23T12:07:13.774Z,66.55
2022-11-23T12:09:45.998Z,63.05
2022-11-23T12:12:18.109Z,72.38
2022-11-23T12:14:47.888Z,65.38
2022-11-23T12:20:14.139Z,65.28
2022-11-23T12:22:53.898Z,56.55
2022-11-23T12:25:33.265Z,58.47
2022-11-23T12:28:16.588Z,57.42
2022-11-23T12:30:59.682Z,53.33
2022-11-23T12:33:42.686Z,51.88
2022-11-23T12:36:27.802Z,63.33
2022-11-23T12:38:57.230Z,57.72
2022-11-23T12:41:37.207Z,57.78
2022-11-23T12:44:41.372Z,57.85
2022-11-23T12:47:21.160Z,54.85
2022-11-23T12:49:52.701Z,57.33
2022-11-23T12:52:40.825Z,54.15
2022-11-23T12:55:22.920Z,54.58
2022-11-23T12:58:03.887Z,57.92
2022-11-23T13:00:40.768Z,54.78
2022-11-23T13:03:54.598Z,57.28
2022-11-23T13:07:28.436Z,49.17
2022-11-23T13:10:09.380Z,54.25
2022-11-23T13:12:57.211Z,50.80
2022-11-23T13:15:50.778Z,51.38
2022-11-23T13:18:41.256Z,49.10
2022-11-23T13:21:26.799Z,46.75
2022-11-23T13:23:55.798Z,49.50
2022-11-23T13:26:28.494Z,46.28
2022-11-23T13:28:59.335Z,47.42
2022-11-23T13:31:31.279Z,51.47
2022-11-23T13:34:01.405Z,40.53
2022-11-23T13:40:04.622Z,40.40
2022-11-23T13:42:36.018Z,42.75
2022-11-23T13:45:30.535Z,41.95
2022-11-23T13:48:48.756Z,42.88
2022-11-23T13:51:07.116Z,46.40
2022-11-23T13:53:38.493Z,44.40
2022-11-23T13:56:27.586Z,48.40
2022-11-23T14:01:59.845Z,47.67
2022-11-23T14:04:30.667Z,45.33
2022-11-23T14:07:03.243Z,46.00
2022-11-23T14:09:37.502Z,38.42
2022-11-23T14:12:15.763Z,48.85
2022-11-23T14:14:54.375Z,47.65
2022-11-23T14:18:00.225Z,45.33
2022-11-23T14:20:48.468Z,50.03
2022-11-23T14:23:43.451Z,39.17
2022-11-23T14:26:27.043Z,47.20
2022-11-23T14:29:17.894Z,47.92
2022-11-23T14:32:01.150Z,42.58
2022-11-23T14:34:37.283Z,51.50
2022-11-23T14:37:17.449Z,46.70
2022-11-23T14:40:18.007Z,50.70
2022-11-23T14:42:53.298Z,48.65
2022-11-23T14:45:25.805Z,47.20
2022-11-23T14:47:55.703Z,50.50
2022-11-23T14:50:28.156Z,47.30
2022-11-23T14:53:00.127Z,47.90
2022-11-23T14:55:32.381Z,47.05
2022-11-23T14:58:03.695Z,49.80
2022-11-23T15:00:36.874Z,53.33
2022-11-23T15:03:42.101Z,49.83
2022-11-23T15:06:07.869Z,52.00
2022-11-23T15:08:45.996Z,53.17
2022-11-23T15:11:21.453Z,49.20
2022-11-23T15:13:51.609Z,46.05
2022-11-23T15:16:23.333Z,55.03
2022-11-23T15:18:53.316Z,46.63
2022-11-23T15:21:27.331Z,45.47
2022-11-23T15:24:00.096Z,46.28
2022-11-23T15:29:31.163Z,46.83
2022-11-23T15:32:29.464Z,60.85
2022-11-23T15:34:51.093Z,55.78
2022-11-23T15:37:20.071Z,48.53
2022-11-23T15:39:49.786Z,54.10
2022-11-23T15:47:27.537Z,55.15
2022-11-23T15:50:07.424Z,60.15
2022-11-23T15:52:43.985Z,56.85
2022-11-23T15:55:16.118Z,50.95
2022-11-23T15:57:44.321Z,61.00
2022-11-23T16:00:25.231Z,61.10
2022-11-23T16:02:54.211Z,52.03
2022-11-23T16:05:25.668Z,57.70
2022-11-23T16:07:57.635Z,57.40
2022-11-23T16:10:29.341Z,48.72
2022-11-23T16:13:00.304Z,50.33
2022-11-23T16:15:49.317Z,48.00
2022-11-23T16:18:22.987Z,53.58
2022-11-23T16:20:56.610Z,50.08
2022-11-23T16:23:27.112Z,60.00
2022-11-23T16:26:00.652Z,51.22
2022-11-23T16:28:32.082Z,56.55
2022-11-23T16:31:01.123Z,57.10
2022-11-23T16:33:30.437Z,58.85
2022-11-23T16:36:00.272Z,56.13
2022-11-23T16:40:56.776Z,53.88
2022-11-23T16:43:24.928Z,68.93
2022-11-23T16:45:53.483Z,73.87
2022-11-23T16:48:39.948Z,74.82
2022-11-23T16:51:14.449Z,96.65
2022-11-23T16:54:12.560Z,82.43
2022-11-23T16:56:36.599Z,94.80
2022-11-23T16:59:05.343Z,94.90
2022-11-23T17:01:36.035Z,97.75
2022-11-23T17:04:04.372Z,76.95
2022-11-23T17:06:34.339Z,81.53
2022-11-23T17:09:07.893Z,102.07
2022-11-23T17:11:40.176Z,94.55
2022-11-23T17:14:08.895Z,81.30
2022-11-23T17:16:37.433Z,80.90
2022-11-23T17:19:07.757Z,78.10
2022-11-23T17:21:38.146Z,78.88
2022-11-23T17:24:06.931Z,69.80
2022-11-23T17:26:38.295Z,73.70
2022-11-23T17:29:09.306Z,68.28
2022-11-23T17:31:38.035Z,77.50
2022-11-23T17:34:06.198Z,71.05
2022-11-23T17:36:34.729Z,76.57
2022-11-23T17:39:04.307Z,66.38
2022-11-23T17:41:32.845Z,76.00
2022-11-23T17:44:00.965Z,72.45
2022-11-23T17:46:33.431Z,79.18
2022-11-23T17:49:02.494Z,75.68
2022-11-23T17:53:59.127Z,78.57
2022-11-23T17:56:28.966Z,77.73
2022-11-23T17:58:57.592Z,73.57
2022-11-23T18:01:26.683Z,88.15
2022-11-23T18:03:56.353Z,71.25
2022-11-23T18:06:28.133Z,72.07
2022-11-23T18:08:57.641Z,79.00
2022-11-23T18:11:26.192Z,74.40
2022-11-23T18:13:56.473Z,74.03
2022-11-23T18:16:25.126Z,84.05
2022-11-23T18:18:53.605Z,81.88
2022-11-23T18:21:22.458Z,83.53
2022-11-23T18:23:50.557Z,78.13
2022-11-23T18:26:20.821Z,73.78
2022-11-23T18:28:49.284Z,80.32
2022-11-23T18:31:19.818Z,81.95
2022-11-23T18:33:48.642Z,85.63
2022-11-23T18:36:17.155Z,94.10
2022-11-23T18:38:45.988Z,76.95
2022-11-23T18:41:16.918Z,78.10
2022-11-23T18:43:45.443Z,86.63
2022-11-23T18:46:19.346Z,76.78
2022-11-23T18:48:50.666Z,81.50
2022-11-23T18:51:19.945Z,85.60
2022-11-23T18:53:50.067Z,80.78
2022-11-23T18:56:19.364Z,69.32
2022-11-23T18:58:47.710Z,71.05
2022-11-23T19:01:19.595Z,67.20
2022-11-23T19:03:50.789Z,64.18
2022-11-23T19:06:21.655Z,66.85
2022-11-23T19:08:53.732Z,52.63
2022-11-23T19:11:24.419Z,67.45
2022-11-23T19:13:56.888Z,57.00
2022-11-23T19:16:27.172Z,57.25
2022-11-23T19:18:58.029Z,69.15
2022-11-23T19:21:30.331Z,59.22
2022-11-23T19:24:00.567Z,65.65
2022-11-23T19:26:30.875Z,67.35
2022-11-23T19:29:00.186Z,68.28
2022-11-23T19:31:30.452Z,64.43
2022-11-23T19:34:03.673Z,69.25
2022-11-23T19:36:33.686Z,70.82
2022-11-23T19:39:02.849Z,79.32
2022-11-23T19:44:01.867Z,70.30
2022-11-23T19:46:31.693Z,67.93
2022-11-23T19:51:29.984Z,74.20
2022-11-23T19:54:01.166Z,73.72
2022-11-23T19:56:32.705Z,72.70
2022-11-23T19:59:02.219Z,73.40
2022-11-23T20:01:32.737Z,78.95
2022-11-23T20:04:09.227Z,72.25
2022-11-23T20:06:42.148Z,77.90
2022-11-23T20:09:12.987Z,82.70
2022-11-23T20:11:44.784Z,68.57
2022-11-23T20:14:16.743Z,72.63
2022-11-23T20:16:45.208Z,72.97
2022-11-23T20:19:14.768Z,74.78
2022-11-23T20:21:45.930Z,70.45
2022-11-23T20:24:15.474Z,71.55
2022-11-23T20:26:44.499Z,65.38
2022-11-23T20:29:13.867Z,73.35
2022-11-23T20:31:42.900Z,71.95
2022-11-23T20:34:16.750Z,68.95
2022-11-23T20:36:48.356Z,62.60
2022-11-23T20:39:16.482Z,61.65
2022-11-23T20:41:45.183Z,66.50
2022-11-23T20:44:15.460Z,71.97
2022-11-23T20:49:33.781Z,67.57
2022-11-23T20:52:03.816Z,60.35
2022-11-23T20:54:32.574Z,58.72
2022-11-23T20:57:01.033Z,75.60
2022-11-23T20:59:30.043Z,57.60
2022-11-23T21:01:58.444Z,61.72
2022-11-23T21:04:27.534Z,67.43
2022-11-23T21:06:56.016Z,60.05
2022-11-23T21:09:25.896Z,57.20
2022-11-23T21:12:14.354Z,58.75
2022-11-23T21:14:45.555Z,48.97
2022-11-23T21:17:14.954Z,64.07
2022-11-23T21:19:43.696Z,58.00
2022-11-23T21:22:13.899Z,54.55
2022-11-23T21:24:44.324Z,54.10
2022-11-23T21:27:14.250Z,57.20
2022-11-23T21:29:44.161Z,59.85
2022-11-23T21:32:14.760Z,63.20
2022-11-23T21:34:43.658Z,60.25
2022-11-23T21:37:12.524Z,54.77
2022-11-23T21:39:41.443Z,54.72
2022-11-23T21:42:10.958Z,57.80
2022-11-23T21:44:39.562Z,60.40
2022-11-23T21:47:07.721Z,58.47
2022-11-23T21:49:36.225Z,52.93
2022-11-23T21:52:04.978Z,60.72
2022-11-23T21:54:33.717Z,56.70
2022-11-23T21:57:04.786Z,57.63
2022-11-23T21:59:34.935Z,58.45
2022-11-23T22:02:03.230Z,60.42
2022-11-23T22:04:31.979Z,66.22
2022-11-23T22:07:00.487Z,68.95
2022-11-23T22:09:31.445Z,63.08
2022-11-23T22:11:59.698Z,61.90
2022-11-23T22:14:28.158Z,63.27
2022-11-23T22:16:57.928Z,58.15
2022-11-23T22:19:26.476Z,56.13
2022-11-23T22:21:54.946Z,64.28
2022-11-23T22:24:23.877Z,64.63
2022-11-23T22:26:52.298Z,62.10
2022-11-23T22:29:21.060Z,57.08
2022-11-23T22:31:50.829Z,56.33
2022-11-23T22:34:20.978Z,66.63
2022-11-23T22:36:51.554Z,57.22
2022-11-23T22:39:20.111Z,60.80
2022-11-23T22:41:49.161Z,54.55
2022-11-23T22:44:17.849Z,58.10
2022-11-23T22:46:47.199Z,57.97
2022-11-23T22:49:19.121Z,59.45
2022-11-23T22:51:49.099Z,57.75
2022-11-23T22:54:17.851Z,58.92
2022-11-23T22:56:46.688Z,51.20
2022-11-23T22:59:15.213Z,59.90
2022-11-23T23:01:43.440Z,52.20
2022-11-23T23:04:12.729Z,55.03
2022-11-23T23:06:40.986Z,51.67
2022-11-23T23:09:11.315Z,50.27
2022-11-23T23:11:40.377Z,56.90
2022-11-23T23:14:08.991Z,53.78
2022-11-23T23:16:39.797Z,54.13
2022-11-23T23:19:08.544Z,59.20
2022-11-23T23:21:37.154Z,54.65
2022-11-23T23:24:06.609Z,49.63
2022-11-23T23:26:36.616Z,47.28
2022-11-23T23:29:05.176Z,59.28
2022-11-23T23:31:33.511Z,59.72
2022-11-23T23:34:02.667Z,54.42
2022-11-23T23:36:31.279Z,56.70
2022-11-23T23:39:03.746Z,66.40
2022-11-23T23:41:32.022Z,58.08
2022-11-23T23:44:02.031Z,61.63
2022-11-23T23:46:30.390Z,65.22
2022-11-23T23:49:00.776Z,69.03
2022-11-23T23:51:29.079Z,57.47
2022-11-23T23:53:58.883Z,63.23
2022-11-23T23:56:28.956Z,63.47
2022-11-23T23:58:59.358Z,61.63
